AGROMETEOROLOŠKI PORTAL
Vinorodna pokrajina

Temelj dobrega kmetovanja.

Pregled podatkov za lokacijo MARIBOR - LETALIŠČE ARSO, meteorološka postaja 121

Pregled senzorjev na lokaciji

ID Ime Zadnja
vrednost
Datum in čas
meritve
(lokalni čas)
Tip
senzorja
6038 Zračni tlak (hPa) 978 hPa 16.4.2024 16:00 ARSO
2661 Sončno sevanje (W/m2) 43 W/m2 16.4.2024 16:00 ARSO
2667 Padavine (mm) 1,3 mm 16.4.2024 16:00 ARSO
2675 Relativna zračna vlaga (2 m) (% RH) 96 % RH 16.4.2024 16:00 ARSO
5959 Temperatura tal (10 cm) (°C) 12 °C 16.4.2024 16:00 ARSO
5960 Temperatura tal (30 cm) (°C) 14,2 °C 16.4.2024 16:00 ARSO
5961 Temperatura tal (5 cm) (°C) 9,5 °C 16.4.2024 16:00 ARSO
2674 Temperatura (2 m) (°C) 0,8 °C 16.4.2024 16:00 ARSO
5963 Smer vetra (2 m) (°) 354 ° 16.4.2024 16:00 ARSO
5962 Hitrost vetra (2 m) (km/h) 10 km/h 16.4.2024 16:00 ARSO

Pregled podatkov zadnjih 24 ur

Zap.
št.
Datum in čas
(lokalni čas)
MARIBOR - LETALIŠČE ARSO
Zračni
tlak
Sončno
sevanje
Padavine Relativna
zračna
vlaga
(2
m)
Temperatura
tal
(10
cm)
Temperatura
tal
(30
cm)
Temperatura
tal
(5
cm)
Temperatura
(2
m)
Smer
vetra
(2
m)
Hitrost
vetra
(2
m)
1 16.4.2024 16:00 977,9 43 1,3 96 12 14,2 9,5 0,8 354 10
2 16.4.2024 15:30 978 46 1,7 95 12,2 14,3 9,7 1,2 342 12
3 16.4.2024 15:00 978,3 41 1,4 95 12,5 14,4 10 1,3 351 9
4 16.4.2024 14:30 978,3 52 2 94 12,8 14,4 10,2 1,6 28 10
5 16.4.2024 14:00 978 66 1,8 94 13 14,5 10,5 1,8 43 9
6 16.4.2024 13:30 977,7 57 1,6 93 13,3 14,5 10,8 2,3 77 10
7 16.4.2024 13:00 977,5 52 3,1 92 13,6 14,5 11,2 3,1 67 16
8 16.4.2024 12:30 977 40 2,3 91 13,8 14,6 11,7 4 60 18
9 16.4.2024 12:00 976,5 45 2,3 91 14 14,6 12,2 4,9 57 16
10 16.4.2024 11:30 976,2 36 2,5 92 14,2 14,7 12,7 5,5 63 14
11 16.4.2024 11:00 975,7 22 2,1 92 14,4 14,7 13,1 6 68 16
12 16.4.2024 10:30 975,1 12 1,6 89 14,5 14,8 13,5 6,6 50 17
13 16.4.2024 10:00 974,3 9 1,6 84 14,6 14,8 13,8 7,6 38 23
14 16.4.2024 09:30 972,8 2 0,7 81 14,6 14,8 13,8 11,5 48 13
15 16.4.2024 09:00 972,4 6 0 81 14,7 14,9 13,9 12,3 102 5
16 16.4.2024 08:30 972,3 7 0 84 14,7 14,9 13,9 12,1 56 7
17 16.4.2024 08:00 972,1 25 0 86 14,8 15 13,9 12,1 19 7
18 16.4.2024 07:30 971,9 29 0 85 14,8 15 13,9 12,1 19 6
19 16.4.2024 07:00 972 10 0 85 14,9 15,1 13,9 11,8 50 5
20 16.4.2024 06:30 972 1 0 84 15 15,1 14 11,7 30 8
21 16.4.2024 06:00 971,9 0 0 83 15,2 15,2 14,1 11,9 15 10
22 16.4.2024 05:30 972 0 0 83 15,3 15,2 14,2 11,8 23 9
23 16.4.2024 05:00 972,2 0 0 84 15,4 15,2 14,4 11,7 5 10
24 16.4.2024 04:30 972,5 0 0 83 15,5 15,2 14,5 11,9 322 5
25 16.4.2024 04:00 972,7 0 0 82 15,7 15,2 14,7 12,1 352 13
26 16.4.2024 03:30 972,8 0 0 81 15,8 15,3 14,9 12,3 346 10
27 16.4.2024 03:00 972,7 0 0 78 16 15,3 15,1 12,9 351 14
28 16.4.2024 02:30 972,6 0 0 61 16,1 15,3 15,3 14,4 28 11
29 16.4.2024 02:00 972,6 0 0 57 16,3 15,3 15,5 15,1 90 12
30 16.4.2024 01:30 972,7 0 0 57 16,4 15,4 15,7 14,9 107 11
31 16.4.2024 01:00 972,8 0 0 53 16,6 15,4 15,9 15,8 167 14
32 16.4.2024 00:30 973,3 0 0 50 16,7 15,4 16,2 16,7 165 12
33 16.4.2024 00:00 973,6 0 0 49 16,9 15,4 16,4 17,8 196 15
34 15.4.2024 23:30 973,7 0 0 47 17,1 15,4 16,7 18,3 218 18
35 15.4.2024 23:00 973,8 0 0 48 17,3 15,4 16,9 18,2 217 21
36 15.4.2024 22:30 974,3 0 0 47 17,5 15,4 17,2 18,4 218 17
37 15.4.2024 22:00 974,4 0 0 46 17,6 15,3 17,6 19 215 18
38 15.4.2024 21:30 974,6 0 0 44 17,8 15,3 17,9 19,7 216 19
39 15.4.2024 21:00 974,5 0 0 42 18 15,3 18,2 20 215 13
40 15.4.2024 20:30 974,1 0 0 42 18,1 15,2 18,6 20,5 219 20
41 15.4.2024 20:00 973,6 9 0 41 18,3 15,2 19 21,2 213 27
42 15.4.2024 19:30 973,8 50 0 40 18,4 15,1 19,3 21,9 209 24
43 15.4.2024 19:00 974 154 0 39 18,5 15,1 19,6 22,6 218 25
44 15.4.2024 18:30 974,1 125 0 37 18,6 15 19,8 22,7 220 28
45 15.4.2024 18:00 974,5 194 0 35 18,7 14,9 20,2 23,3 231 36
46 15.4.2024 17:30 974,8 215 0 34 18,7 14,9 20,5 23,6 231 37